Latest Weather Observations for Brisbane Airport

IDQ60901

Issued at 4:35 pm EST Saturday 2 August 2014 (issued every 10 minutes, with the page automatically refreshed every 10 minutes)

About weather observations | Map of Brisbane area stations | Latest observations for Brisbane area | Other Formats
Station Details ID: 040842 Name: BRISBANE AERO Lat: -27.39 Lon: 153.13 Height: 4.51 m
Data from the previous 72 hours. | See also: Recent months at Brisbane Airport
Date/Time
EST
Tmp

°C
App
Tmp
°C
Dew
Point
°C
Rel
Hum
%
Delta-T

°C
Wind Press
QNH
hPa
Press
MSL
hPa
Rain
since
9 am
mm
Dir
 
Spd
km/h
Gust
km/h
Spd
kts
Gust
kts
02/04:30pm 16.8 10.7 -2.0 27 7.7 ESE 20 32 11 17 1023.0 - 0.0
02/04:00pm 17.3 11.2 -2.6 25 8.1 ESE 20 32 11 17 1022.6 - 0.0
02/03:30pm 17.7 11.8 -1.0 28 7.9 ESE 20 30 11 16 1022.4 - 0.0
02/03:00pm 18.4 13.6 -2.9 23 8.7 E 13 24 7 13 1022.1 1022.1 0.0
02/02:30pm 17.9 12.1 -4.5 21 8.8 E 17 26 9 14 1022.1 - 0.0
02/02:00pm 18.1 12.8 -4.0 22 8.8 E 15 24 8 13 1022.0 - 0.0
02/01:30pm 18.5 13.5 -4.5 20 9.1 ESE 13 20 7 11 1021.9 - 0.0
02/01:00pm 19.3 13.5 -14.4 9 11.0 SSE 13 22 7 12 1021.8 - 0.0
02/12:30pm 19.2 13.4 -14.0 9 10.9 S 13 20 7 11 1022.1 - 0.0
02/12:00pm 19.4 13.8 -10.8 12 10.6 SW 13 20 7 11 1022.4 1022.4 0.0
02/11:30am 18.3 11.4 -10.2 13 10.0 SW 20 28 11 15 1022.6 - 0.0
02/11:00am 18.1 11.4 -8.3 16 9.6 SW 20 30 11 16 1022.9 - 0.0
02/10:30am 17.0 9.1 -8.4 17 9.1 SW 26 33 14 18 1023.1 - 0.0
02/10:00am 16.5 8.6 -8.6 17 8.9 SW 26 33 14 18 1023.2 - 0.0
02/09:30am 15.8 7.3 -7.0 20 8.3 SW 30 37 16 20 1023.2 - 0.0
02/09:00am 15.1 6.1 -6.6 22 7.9 SW 33 44 18 24 1023.1 1023.1 0.0
02/08:30am 14.5 6.0 -7.0 22 7.7 SW 30 39 16 21 1022.8 - 0.0
02/08:00am 13.8 5.3 -6.5 24 7.3 SW 30 37 16 20 1022.5 - 0.0
02/07:30am 13.1 5.2 -5.1 28 6.7 SSW 28 35 15 19 1022.1 - 0.0
02/07:00am 12.5 5.1 -3.6 32 6.1 SSW 26 33 14 18 1021.8 - 0.0
02/06:30am 12.2 4.2 -2.2 36 5.6 SW 30 37 16 20 1021.1 - 0.0
02/06:00am 12.8 5.6 -1.9 36 5.8 WSW 26 32 14 17 1020.3 1020.3 0.0
02/05:30am 13.2 5.7 -1.2 37 5.8 WSW 28 37 15 20 1019.7 - 0.0
02/05:00am 11.4 4.9 2.9 56 3.7 WSW 26 33 14 18 1019.1 - 0.0
02/04:30am 12.4 7.2 2.5 51 4.3 WSW 19 22 10 12 1018.8 - 0.0
02/04:00am 12.6 8.6 3.1 52 4.2 WSW 13 19 7 10 1018.5 - 0.0
02/03:30am 14.2 9.4 2.4 45 5.2 WSW 17 24 9 13 1018.4 - 0.0
02/03:00am 14.8 9.6 2.4 43 5.5 WSW 19 30 10 16 1018.1 1018.1 0.0
02/02:30am 13.3 7.1 2.3 47 4.8 WSW 24 30 13 16 1017.9 - 0.0
02/02:00am 14.7 8.7 1.3 40 5.8 WSW 22 26 12 14 1017.7 - 0.0
02/01:30am 13.7 7.9 2.3 46 5.0 SW 22 28 12 15 1017.6 - 0.0
02/01:00am 16.5 11.6 -0.2 32 7.1 SW 15 19 8 10 1017.6 - 0.0
02/12:30am 14.7 11.8 2.5 43 5.4 WNW 7 11 4 6 1017.1 - 0.0
02/12:00am 15.3 11.2 2.5 42 5.7 WNW 13 17 7 9 1016.5 1016.5 0.0
 
Date/Time
EST
Tmp

°C
App
Tmp
°C
Dew
Point
°C
Rel
Hum
%
Delta-T

°C
Wind Press
QNH
hPa
Press
MSL
hPa
Rain
since
9 am
mm
Dir
 
Spd
km/h
Gust
km/h
Spd
kts
Gust
kts
01/11:30pm 14.8 11.6 5.0 52 4.6 NNW 11 13 6 7 1016.1 - 0.0
01/11:00pm 17.2 13.3 3.6 40 6.3 W 13 20 7 11 1015.5 - 0.0
01/10:30pm 14.9 10.7 8.3 64 3.3 W 20 24 11 13 1015.3 - 0.0
01/10:00pm 17.7 15.4 10.6 63 3.8 WNW 13 15 7 8 1014.8 - 0.0
01/09:30pm 17.9 16.7 12.9 72 2.8 NW 11 15 6 8 1014.1 - 0.0
01/09:00pm 18.3 16.9 13.5 73 2.7 NNW 13 13 7 7 1013.9 1013.9 0.0
01/08:30pm 18.0 17.0 14.5 80 2.0 N 13 17 7 9 1013.7 - 0.0
01/08:00pm 19.6 19.2 15.2 76 2.6 NW 11 15 6 8 1013.5 - 0.0
01/07:30pm 19.3 17.5 15.4 78 2.3 N 19 24 10 13 1013.0 - 0.0
01/07:00pm 19.9 18.0 15.7 77 2.5 N 20 28 11 15 1012.7 - 0.0
01/06:30pm 20.2 17.0 15.3 73 2.9 N 26 33 14 18 1012.4 - 0.0
01/06:00pm 20.3 16.9 14.8 70 3.2 N 26 33 14 18 1011.9 1011.9 0.0
01/05:30pm 23.6 20.4 6.8 34 8.7 NW 13 17 7 9 1011.4 - 0.0
01/05:00pm 26.2 21.4 4.6 25 10.9 NW 19 28 10 15 1011.0 - 0.0
01/04:30pm 27.2 22.5 5.2 24 11.3 W 19 28 10 15 1011.0 - 0.0
01/04:00pm 27.3 23.2 6.3 26 11.0 NW 17 22 9 12 1011.0 - 0.0
01/03:30pm 27.5 23.6 7.3 28 10.8 NW 17 26 9 14 1010.9 - 0.0
01/03:00pm 27.9 22.2 6.8 26 11.2 NW 26 35 14 19 1011.0 1011.0 0.0
01/02:30pm 27.6 21.2 6.8 26 11.0 NW 30 41 16 22 1011.2 - 0.0
01/02:00pm 27.2 21.3 7.6 29 10.5 NW 28 43 15 23 1011.5 - 0.0
01/01:30pm 27.2 23.4 9.0 31 10.0 NNE 19 28 10 15 1012.0 - 0.0
01/01:00pm 25.4 21.6 12.4 44 7.5 NNE 24 30 13 16 1012.5 - 0.0
01/12:30pm 25.4 22.5 12.8 45 7.3 NNE 20 28 11 15 1013.0 - 0.0
01/12:00pm 24.1 21.9 14.3 54 5.8 NNE 19 24 10 13 1013.6 1013.6 0.0
01/11:30am 23.3 20.9 12.8 51 6.0 NNE 17 22 9 12 1014.4 - 0.0
01/11:00am 22.2 19.8 12.7 55 5.4 N 17 20 9 11 1015.1 - 0.0
01/10:30am 21.6 18.8 12.6 56 5.1 N 19 22 10 12 1015.3 - 0.0
01/10:00am 20.1 17.4 13.6 66 3.7 N 20 20 11 11 1015.7 - 0.0
01/09:30am 20.2 18.9 13.8 66 3.7 N 13 17 7 9 1016.1 - 0.0
01/09:00am 19.0 17.5 14.3 74 2.7 N 15 19 8 10 1016.4 1016.4 0.0
01/08:30am 18.5 17.0 14.3 76 2.4 N 15 19 8 10 1016.3 - -
01/08:00am 17.2 16.8 14.0 81 1.8 N 9 13 5 7 1016.3 - -
01/07:30am 15.4 15.5 13.8 90 0.9 N 6 11 3 6 1016.3 - -
01/07:00am 14.4 13.6 12.8 90 0.9 N 9 9 5 5 1016.2 - -
01/06:30am 12.8 11.6 11.5 92 0.7 NNE 9 9 5 5 1016.0 - -
01/06:00am 12.8 12.0 11.7 93 0.6 W 7 7 4 4 1016.1 1016.1 -
01/05:30am 12.9 11.9 12.3 96 0.3 N 9 15 5 8 1016.0 - -
01/05:00am 13.1 12.7 12.4 95 0.4 NW 6 9 3 5 1015.8 - -
01/04:50am 13.4 12.9 12.5 94 0.5 W 7 7 4 4 1015.7 - -
01/04:30am 13.5 12.6 12.6 94 0.5 NNW 9 13 5 7 1015.6 - -
01/04:00am 14.5 12.6 12.9 90 0.9 NNW 15 17 8 9 1015.4 - -
01/03:30am 15.3 13.4 13.1 87 1.2 N 15 17 8 9 1015.5 - -
01/03:00am 14.8 12.1 13.0 89 1.0 N 19 22 10 12 1015.6 1015.6 0.0
01/02:30am 15.3 12.7 13.3 88 1.1 N 19 22 10 12 1015.9 - -
01/02:00am 15.7 13.2 13.6 87 1.2 N 19 22 10 12 1016.3 - -
01/01:30am 15.4 12.7 13.4 88 1.1 N 20 28 11 15 1016.4 - -
01/01:00am 15.7 13.1 13.7 88 1.1 N 20 28 11 15 1016.6 - -
01/12:30am 15.6 13.0 13.1 85 1.4 N 19 22 10 12 1016.9 - -
01/12:00am 16.2 14.7 13.0 81 1.8 NNW 13 15 7 8 1017.2 1017.2 -
 
Date/Time
EST
Tmp

°C
App
Tmp
°C
Dew
Point
°C
Rel
Hum
%
Delta-T

°C
Wind Press
QNH
hPa
Press
MSL
hPa
Rain
since
9 am
mm
Dir
 
Spd
km/h
Gust
km/h
Spd
kts
Gust
kts
31/11:30pm 16.3 14.4 13.1 81 1.8 NNW 15 15 8 8 1017.4 - -
31/11:00pm 16.7 15.0 13.5 81 1.8 NNW 15 17 8 9 1017.4 - -
31/10:30pm 17.3 14.3 13.6 79 2.1 N 22 28 12 15 1017.5 - -
31/10:00pm 17.1 14.1 13.7 80 1.9 N 22 28 12 15 1017.4 - -
31/09:30pm 17.3 15.0 14.0 81 1.9 N 19 35 10 19 1017.4 - -
31/09:00pm 17.7 15.2 14.0 79 2.1 N 20 28 11 15 1017.5 1017.5 0.0
31/08:30pm 17.7 15.2 14.0 79 2.1 NNW 20 26 11 14 1017.4 - -
31/08:00pm 17.7 15.1 14.8 83 1.7 N 22 28 12 15 1017.2 - -
31/07:30pm 18.1 15.8 14.6 80 2.0 N 20 28 11 15 1016.7 - -
31/07:00pm 17.5 14.7 15.3 87 1.3 N 24 32 13 17 1016.4 - -
31/06:30pm 18.0 15.5 15.1 83 1.7 N 22 30 12 16 1016.2 - -
31/06:00pm 17.9 14.8 14.6 81 1.9 N 24 30 13 16 1016.0 1016.0 -
31/05:30pm 18.8 15.7 14.5 76 2.5 NNE 24 30 13 16 1015.8 - -
31/05:00pm 19.2 16.2 14.9 76 2.5 NNE 24 32 13 17 1015.8 - -
31/04:30pm 19.8 16.3 15.4 76 2.6 NNE 28 35 15 19 1015.5 - -
31/04:00pm 20.3 16.4 15.4 73 2.9 NNE 30 37 16 20 1015.4 - -
31/03:30pm 21.0 17.0 15.3 70 3.4 NNE 30 37 16 20 1015.5 - -
31/03:00pm 21.2 17.4 14.7 66 3.8 NNE 28 35 15 19 1015.7 1015.7 0.0
31/02:30pm 21.4 16.8 13.6 61 4.5 NNE 30 37 16 20 1015.8 - -
31/02:00pm 21.8 19.6 12.2 54 5.4 NNE 15 - 8 - 1016.2 - -
31/01:30pm 21.9 16.3 10.3 47 6.3 NNE 30 35 16 19 1016.7 - 0.0
31/01:00pm 22.2 16.9 9.8 45 6.7 NNE 28 33 15 18 1017.4 - 0.0
31/12:30pm 21.7 17.2 8.4 42 7.0 NNE 22 28 12 15 1018.2 - 0.0
31/12:00pm 21.5 17.8 7.8 41 7.1 NNE 17 19 9 10 1018.9 1018.9 0.0
31/11:30am 21.9 17.8 6.2 36 7.9 N 17 19 9 10 1019.6 - 0.0
31/11:00am 20.6 18.0 7.8 43 6.6 NNE 11 15 6 8 1020.3 - 0.0
31/10:30am 19.0 16.2 7.1 46 6.0 N 11 13 6 7 1021.0 - 0.0
31/10:00am 18.7 16.3 6.9 46 5.9 N 9 13 5 7 1021.4 - 0.0
31/09:30am 16.9 15.1 7.0 52 4.9 NW 6 7 3 4 1021.7 - 0.0
31/09:00am 15.4 13.8 7.8 60 3.8 WNW 6 9 3 5 1021.8 1021.8 0.0
31/08:30am 12.9 10.7 6.4 64 3.1 W 7 11 4 6 1021.6 - -
31/08:00am 10.7 8.5 6.4 75 2.0 SW 7 9 4 5 1021.3 - -
31/07:30am 8.9 7.2 6.0 82 1.3 SW 4 7 2 4 1021.0 - -
31/07:00am 7.5 6.4 5.2 85 1.0 CALM 0 0 0 0 1020.7 - -
31/06:30am 7.9 6.4 5.2 83 1.2 WSW 2 7 1 4 1020.4 - -
31/06:00am 7.1 4.1 4.1 81 1.3 SW 9 11 5 6 1020.3 1020.3 0.0
31/05:30am 7.5 4.7 5.0 84 1.1 SSW 9 11 5 6 1020.2 - 0.0
31/05:00am 9.1 7.3 5.3 77 1.7 S 4 9 2 5 1020.0 - 0.0
31/04:30am 9.6 6.8 5.2 74 2.0 S 9 11 5 6 1019.9 - 0.0
31/04:00am 9.5 6.5 5.8 78 1.7 S 11 15 6 8 1019.9 - -
31/03:30am 10.2 7.7 8.1 87 1.0 SSW 11 17 6 9 1019.9 - -
31/03:00am 9.0 5.6 7.5 90 0.7 SSW 15 19 8 10 1019.8 1019.8 0.0
31/02:30am 8.6 6.4 6.4 86 1.0 SW 7 9 4 5 1019.8 - 0.0
31/02:11am 9.3 7.4 7.4 88 0.9 WSW 7 9 4 5 1019.8 - 0.0
31/02:00am 9.5 7.8 7.4 87 1.0 WSW 6 7 3 4 1019.9 - 0.0
31/01:30am 9.3 7.4 7.4 88 0.9 NW 7 9 4 5 1020.0 - 0.0
31/01:16am 9.5 7.5 7.2 85 1.1 NW 7 9 4 5 1020.1 - -
31/01:00am 9.9 8.1 8.0 88 0.9 NW 7 9 4 5 1020.1 - -
31/12:30am 9.8 8.4 8.8 93 0.5 NW 6 7 3 4 1020.2 - 0.0
31/12:00am 10.3 8.7 10.1 99 0.1 NW 9 13 5 7 1020.3 1020.3 0.0
 
Date/Time
EST
Tmp

°C
App
Tmp
°C
Dew
Point
°C
Rel
Hum
%
Delta-T

°C
Wind Press
QNH
hPa
Press
MSL
hPa
Rain
since
9 am
mm
Dir
 
Spd
km/h
Gust
km/h
Spd
kts
Gust
kts
30/11:30pm 12.1 11.5 11.7 97 0.2 NNW 6 9 3 5 1020.5 - 0.0
30/11:15pm 12.1 12.0 10.9 92 0.6 WNW 2 7 1 4 1020.4 - -
30/11:00pm 10.4 10.6 10.4 100 0.0 CALM 0 - 0 - 1020.4 - 0.0
30/10:30pm 12.6 12.2 12.4 99 0.1 W 6 9 3 5 1020.8 - 0.0
30/10:24pm 12.1 11.6 12.1 100 0.0 WSW 6 7 3 4 1020.8 - -
30/10:10pm 13.8 13.7 13.4 97 0.2 W 6 9 3 5 1020.8 - 0.0
30/10:00pm 13.5 13.4 13.3 99 0.1 W 6 7 3 4 1020.8 - 0.0
30/09:30pm 14.9 15.1 14.7 99 0.1 NNW 7 13 4 7 1020.8 - 0.0
30/09:23pm 13.6 13.5 13.2 97 0.2 N 6 17 3 9 1020.8 - 0.0
30/09:09pm 14.9 16.4 14.7 99 0.1 CALM 0 - 0 - 1020.7 - 0.0
30/09:00pm 14.8 15.5 14.4 97 0.2 N 4 9 2 5 1020.6 1020.6 0.0
30/08:30pm 15.4 15.7 15.1 98 0.2 N 7 9 4 5 1020.6 - 0.0
30/08:00pm 15.7 15.8 15.4 98 0.2 N 9 9 5 5 1020.5 - 0.0
30/07:30pm 16.0 16.0 15.3 96 0.4 NNE 9 11 5 6 1020.3 - 0.0
30/07:00pm 15.4 14.7 14.3 93 0.6 NNE 11 13 6 7 1020.2 - -
30/06:30pm 16.0 15.3 14.4 90 0.9 NNE 11 13 6 7 1019.9 - 0.0
30/06:00pm 16.1 15.0 14.3 89 1.0 NNE 13 17 7 9 1019.5 1019.5 0.0
30/05:30pm 17.6 16.7 14.8 84 1.6 NE 13 15 7 8 1019.1 - 0.0
30/05:00pm 18.9 18.0 14.8 77 2.4 NE 13 15 7 8 1018.9 - 0.0

Latest Capital City Observations: Canberra | Sydney | Melbourne | Brisbane | Adelaide | Perth | Hobart | Darwin

Other Formats:

Comma delimited format used in spreadsheet applications
http://www.bom.gov.au/fwo/IDQ60901/IDQ60901.94578.axf

JavaScript Object Notation format (JSON) in row-major order
http://www.bom.gov.au/fwo/IDQ60901/IDQ60901.94578.json